sensor_id;sensor_type;location;lat;lon;timestamp;pressure;altitude;pressure_sealevel;temperature;humidity
37832;BME280;23671;38.090;-122.570;2023-05-11T00:01:25;101734.69;;;21.64;49.90
37832;BME280;23671;38.090;-122.570;2023-05-11T00:03:55;101736.69;;;21.62;49.88
37832;BME280;23671;38.090;-122.570;2023-05-11T00:06:22;101737.72;;;21.61;49.71
37832;BME280;23671;38.090;-122.570;2023-05-11T00:08:49;101734.34;;;21.59;49.87
37832;BME280;23671;38.090;-122.570;2023-05-11T00:11:16;101736.38;;;21.57;49.89
37832;BME280;23671;38.090;-122.570;2023-05-11T00:13:46;101752.50;;;21.57;49.70
37832;BME280;23671;38.090;-122.570;2023-05-11T00:16:14;101732.16;;;21.54;49.80
37832;BME280;23671;38.090;-122.570;2023-05-11T00:18:41;101734.16;;;21.52;49.58
37832;BME280;23671;38.090;-122.570;2023-05-11T00:21:08;101744.25;;;21.50;49.63
37832;BME280;23671;38.090;-122.570;2023-05-11T00:23:35;101739.91;;;21.49;49.59
37832;BME280;23671;38.090;-122.570;2023-05-11T00:26:02;101737.53;;;21.46;49.62
37832;BME280;23671;38.090;-122.570;2023-05-11T00:28:29;101746.59;;;21.45;49.42
37832;BME280;23671;38.090;-122.570;2023-05-11T00:30:59;101745.75;;;21.45;49.56
37832;BME280;23671;38.090;-122.570;2023-05-11T00:33:26;101738.03;;;21.42;49.76
37832;BME280;23671;38.090;-122.570;2023-05-11T00:35:53;101738.38;;;21.39;49.88
37832;BME280;23671;38.090;-122.570;2023-05-11T00:38:20;101740.53;;;21.35;50.04
37832;BME280;23671;38.090;-122.570;2023-05-11T00:40:48;101734.50;;;21.33;50.00
37832;BME280;23671;38.090;-122.570;2023-05-11T00:43:16;101735.66;;;21.31;49.91
37832;BME280;23671;38.090;-122.570;2023-05-11T00:45:43;101729.63;;;21.29;50.00
37832;BME280;23671;38.090;-122.570;2023-05-11T00:48:14;101744.25;;;21.26;50.09
37832;BME280;23671;38.090;-122.570;2023-05-11T00:50:41;101739.19;;;21.23;50.07
37832;BME280;23671;38.090;-122.570;2023-05-11T00:53:09;101741.19;;;21.21;50.13
37832;BME280;23671;38.090;-122.570;2023-05-11T00:55:37;101730.97;;;21.17;50.22
37832;BME280;23671;38.090;-122.570;2023-05-11T00:58:04;101740.19;;;21.14;50.19
37832;BME280;23671;38.090;-122.570;2023-05-11T01:00:31;101739.66;;;21.11;50.12
37832;BME280;23671;38.090;-122.570;2023-05-11T01:03:00;101737.63;;;21.05;50.24
37832;BME280;23671;38.090;-122.570;2023-05-11T01:05:47;101738.97;;;21.01;50.05
37832;BME280;23671;38.090;-122.570;2023-05-11T01:08:21;101735.91;;;20.96;50.25
37832;BME280;23671;38.090;-122.570;2023-05-11T01:14:38;101734.19;;;20.87;50.12
37832;BME280;23671;38.090;-122.570;2023-05-11T01:17:24;101730.19;;;20.83;50.01
37832;BME280;23671;38.090;-122.570;2023-05-11T01:19:57;101730.81;;;20.76;50.12
37832;BME280;23671;38.090;-122.570;2023-05-11T01:31:12;101735.25;;;20.60;49.95
37832;BME280;23671;38.090;-122.570;2023-05-11T01:33:54;101732.25;;;20.55;50.02
37832;BME280;23671;38.090;-122.570;2023-05-11T01:36:28;101728.34;;;20.49;49.93
37832;BME280;23671;38.090;-122.570;2023-05-11T01:39:00;101723.63;;;20.43;50.13
37832;BME280;23671;38.090;-122.570;2023-05-11T01:41:30;101719.59;;;20.39;49.66
37832;BME280;23671;38.090;-122.570;2023-05-11T01:44:01;101723.41;;;20.37;49.74
37832;BME280;23671;38.090;-122.570;2023-05-11T01:46:32;101719.53;;;20.31;49.81
37832;BME280;23671;38.090;-122.570;2023-05-11T01:49:01;101715.66;;;20.26;49.66
37832;BME280;23671;38.090;-122.570;2023-05-11T01:51:33;101729.69;;;20.20;49.80
37832;BME280;23671;38.090;-122.570;2023-05-11T01:54:06;101724.09;;;20.13;49.85
37832;BME280;23671;38.090;-122.570;2023-05-11T01:56:36;101729.09;;;20.08;49.69
37832;BME280;23671;38.090;-122.570;2023-05-11T01:59:04;101737.59;;;20.04;49.70
37832;BME280;23671;38.090;-122.570;2023-05-11T02:01:32;101736.41;;;19.98;49.81
37832;BME280;23671;38.090;-122.570;2023-05-11T02:04:04;101746.75;;;19.93;49.74
37832;BME280;23671;38.090;-122.570;2023-05-11T02:06:34;101737.50;;;19.87;49.54
37832;BME280;23671;38.090;-122.570;2023-05-11T02:09:04;101746.00;;;19.83;49.30
37832;BME280;23671;38.090;-122.570;2023-05-11T02:11:33;101742.97;;;19.78;49.35
37832;BME280;23671;38.090;-122.570;2023-05-11T02:14:03;101741.75;;;19.72;49.09
37832;BME280;23671;38.090;-122.570;2023-05-11T02:16:32;101750.25;;;19.68;48.85
37832;BME280;23671;38.090;-122.570;2023-05-11T02:19:00;101741.84;;;19.63;48.80
37832;BME280;23671;38.090;-122.570;2023-05-11T02:21:28;101751.19;;;19.59;48.74
37832;BME280;23671;38.090;-122.570;2023-05-11T02:23:58;101749.13;;;19.53;48.48
37832;BME280;23671;38.090;-122.570;2023-05-11T02:26:26;101751.25;;;19.49;48.46
37832;BME280;23671;38.090;-122.570;2023-05-11T02:28:53;101751.72;;;19.45;48.34
37832;BME280;23671;38.090;-122.570;2023-05-11T02:31:26;101750.66;;;19.38;48.15
37832;BME280;23671;38.090;-122.570;2023-05-11T02:34:03;101749.28;;;19.34;48.11
37832;BME280;23671;38.090;-122.570;2023-05-11T02:36:33;101747.00;;;19.29;48.05
37832;BME280;23671;38.090;-122.570;2023-05-11T02:39:06;101747.63;;;19.23;47.83
37832;BME280;23671;38.090;-122.570;2023-05-11T02:41:39;101741.19;;;19.16;47.77
37832;BME280;23671;38.090;-122.570;2023-05-11T02:44:13;101746.16;;;19.11;47.70
37832;BME280;23671;38.090;-122.570;2023-05-11T02:46:41;101751.13;;;19.06;47.45
37832;BME280;23671;38.090;-122.570;2023-05-11T02:49:11;101740.03;;;19.01;47.76
37832;BME280;23671;38.090;-122.570;2023-05-11T02:51:40;101752.03;;;18.97;47.76
37832;BME280;23671;38.090;-122.570;2023-05-11T02:54:09;101755.31;;;18.91;47.78
37832;BME280;23671;38.090;-122.570;2023-05-11T02:56:38;101752.09;;;18.87;47.70
37832;BME280;23671;38.090;-122.570;2023-05-11T02:59:07;101751.69;;;18.82;47.45
37832;BME280;23671;38.090;-122.570;2023-05-11T03:01:35;101758.31;;;18.78;47.46
37832;BME280;23671;38.090;-122.570;2023-05-11T03:04:04;101758.09;;;18.72;47.69
37832;BME280;23671;38.090;-122.570;2023-05-11T03:06:32;101752.31;;;18.67;47.49
37832;BME280;23671;38.090;-122.570;2023-05-11T03:08:59;101746.59;;;18.62;47.33
37832;BME280;23671;38.090;-122.570;2023-05-11T03:11:27;101750.53;;;18.58;47.65
37832;BME280;23671;38.090;-122.570;2023-05-11T03:13:54;101750.16;;;18.53;47.44
37832;BME280;23671;38.090;-122.570;2023-05-11T03:16:22;101740.88;;;18.47;47.68
37832;BME280;23671;38.090;-122.570;2023-05-11T03:18:49;101751.16;;;18.42;47.56
37832;BME280;23671;38.090;-122.570;2023-05-11T03:21:18;101745.56;;;18.36;47.63
37832;BME280;23671;38.090;-122.570;2023-05-11T03:23:47;101743.44;;;18.30;47.70
37832;BME280;23671;38.090;-122.570;2023-05-11T03:26:17;101749.38;;;18.24;47.79
37832;BME280;23671;38.090;-122.570;2023-05-11T03:28:45;101744.47;;;18.19;47.71
37832;BME280;23671;38.090;-122.570;2023-05-11T03:31:13;101750.38;;;18.13;47.80
37832;BME280;23671;38.090;-122.570;2023-05-11T03:33:40;101743.78;;;18.07;47.89
37832;BME280;23671;38.090;-122.570;2023-05-11T03:36:09;101747.88;;;18.02;47.78
37832;BME280;23671;38.090;-122.570;2023-05-11T03:38:38;101748.31;;;17.97;47.59
37832;BME280;23671;38.090;-122.570;2023-05-11T03:41:05;101751.69;;;17.90;47.04
37832;BME280;23671;38.090;-122.570;2023-05-11T03:43:34;101746.34;;;17.90;46.89
37832;BME280;23671;38.090;-122.570;2023-05-11T03:46:02;101743.28;;;17.85;46.95
37832;BME280;23671;38.090;-122.570;2023-05-11T03:48:30;101745.66;;;17.78;46.85
37832;BME280;23671;38.090;-122.570;2023-05-11T03:50:58;101750.47;;;17.75;46.94
37832;BME280;23671;38.090;-122.570;2023-05-11T03:53:25;101756.91;;;17.72;46.57
37832;BME280;23671;38.090;-122.570;2023-05-11T03:55:52;101753.69;;;17.69;46.79
37832;BME280;23671;38.090;-122.570;2023-05-11T03:58:20;101766.63;;;17.64;46.74
37832;BME280;23671;38.090;-122.570;2023-05-11T04:00:47;101760.03;;;17.58;46.90
37832;BME280;23671;38.090;-122.570;2023-05-11T04:03:15;101760.59;;;17.52;46.99
37832;BME280;23671;38.090;-122.570;2023-05-11T04:05:42;101758.31;;;17.48;46.88
37832;BME280;23671;38.090;-122.570;2023-05-11T04:08:09;101766.75;;;17.43;46.84
37832;BME280;23671;38.090;-122.570;2023-05-11T04:10:36;101767.03;;;17.40;46.89
37832;BME280;23671;38.090;-122.570;2023-05-11T04:13:04;101770.09;;;17.36;46.75
37832;BME280;23671;38.090;-122.570;2023-05-11T04:15:31;101768.72;;;17.32;46.74
37832;BME280;23671;38.090;-122.570;2023-05-11T04:17:58;101767.31;;;17.27;47.25
37832;BME280;23671;38.090;-122.570;2023-05-11T04:20:25;101773.75;;;17.25;47.11
37832;BME280;23671;38.090;-122.570;2023-05-11T04:22:52;101774.16;;;17.20;47.02
37832;BME280;23671;38.090;-122.570;2023-05-11T04:25:19;101770.66;;;17.20;47.10
37832;BME280;23671;38.090;-122.570;2023-05-11T04:27:46;101776.56;;;17.14;46.97
37832;BME280;23671;38.090;-122.570;2023-05-11T04:30:13;101777.66;;;17.11;47.00
37832;BME280;23671;38.090;-122.570;2023-05-11T04:32:40;101778.91;;;17.07;47.09
37832;BME280;23671;38.090;-122.570;2023-05-11T04:35:08;101788.19;;;17.03;47.14
37832;BME280;23671;38.090;-122.570;2023-05-11T04:37:35;101781.41;;;16.99;47.04
37832;BME280;23671;38.090;-122.570;2023-05-11T04:40:02;101784.38;;;16.96;47.14
37832;BME280;23671;38.090;-122.570;2023-05-11T04:42:30;101788.28;;;16.92;47.49
37832;BME280;23671;38.090;-122.570;2023-05-11T04:44:57;101793.88;;;16.89;47.39
37832;BME280;23671;38.090;-122.570;2023-05-11T04:47:24;101794.16;;;16.86;47.44
37832;BME280;23671;38.090;-122.570;2023-05-11T04:49:51;101795.56;;;16.81;47.52
37832;BME280;23671;38.090;-122.570;2023-05-11T04:52:18;101789.50;;;16.79;47.53
37832;BME280;23671;38.090;-122.570;2023-05-11T04:54:45;101795.09;;;16.76;47.59
37832;BME280;23671;38.090;-122.570;2023-05-11T04:57:12;101796.22;;;16.73;47.15
37832;BME280;23671;38.090;-122.570;2023-05-11T04:59:39;101791.16;;;16.70;47.50
37832;BME280;23671;38.090;-122.570;2023-05-11T05:02:06;101794.09;;;16.67;47.19
37832;BME280;23671;38.090;-122.570;2023-05-11T05:04:33;101790.00;;;16.63;47.41
37832;BME280;23671;38.090;-122.570;2023-05-11T05:07:00;101797.44;;;16.60;47.22
37832;BME280;23671;38.090;-122.570;2023-05-11T05:09:27;101794.91;;;16.58;47.19
37832;BME280;23671;38.090;-122.570;2023-05-11T05:11:54;101792.50;;;16.55;47.18
37832;BME280;23671;38.090;-122.570;2023-05-11T05:14:21;101789.25;;;16.52;47.65
37832;BME280;23671;38.090;-122.570;2023-05-11T05:16:48;101807.22;;;16.50;47.60
37832;BME280;23671;38.090;-122.570;2023-05-11T05:19:15;101808.28;;;16.47;47.40
37832;BME280;23671;38.090;-122.570;2023-05-11T05:21:42;101802.38;;;16.44;47.28
37832;BME280;23671;38.090;-122.570;2023-05-11T05:24:09;101794.50;;;16.42;47.62
37832;BME280;23671;38.090;-122.570;2023-05-11T05:26:37;101788.75;;;16.37;47.58
37832;BME280;23671;38.090;-122.570;2023-05-11T05:29:05;101789.97;;;16.33;47.35
37832;BME280;23671;38.090;-122.570;2023-05-11T05:31:32;101793.75;;;16.30;47.75
37832;BME280;23671;38.090;-122.570;2023-05-11T05:33:59;101787.13;;;16.25;47.57
37832;BME280;23671;38.090;-122.570;2023-05-11T05:36:26;101783.75;;;16.23;47.54
37832;BME280;23671;38.090;-122.570;2023-05-11T05:38:53;101780.59;;;16.18;47.71
37832;BME280;23671;38.090;-122.570;2023-05-11T05:41:20;101780.75;;;16.16;47.50
37832;BME280;23671;38.090;-122.570;2023-05-11T05:43:48;101775.69;;;16.13;47.63
37832;BME280;23671;38.090;-122.570;2023-05-11T05:46:16;101783.94;;;16.10;47.94
37832;BME280;23671;38.090;-122.570;2023-05-11T05:48:43;101775.22;;;16.08;47.96
37832;BME280;23671;38.090;-122.570;2023-05-11T05:51:10;101777.31;;;16.05;47.96
37832;BME280;23671;38.090;-122.570;2023-05-11T05:53:37;101778.53;;;16.01;47.94
37832;BME280;23671;38.090;-122.570;2023-05-11T05:56:04;101782.19;;;16.00;48.09
37832;BME280;23671;38.090;-122.570;2023-05-11T05:58:32;101778.09;;;15.96;47.95
37832;BME280;23671;38.090;-122.570;2023-05-11T06:00:59;101778.47;;;15.91;48.13
37832;BME280;23671;38.090;-122.570;2023-05-11T06:03:26;101776.22;;;15.87;48.01
37832;BME280;23671;38.090;-122.570;2023-05-11T06:05:53;101775.63;;;15.83;47.81
37832;BME280;23671;38.090;-122.570;2023-05-11T06:08:20;101779.41;;;15.81;47.77
37832;BME280;23671;38.090;-122.570;2023-05-11T06:10:47;101771.41;;;15.81;47.95
37832;BME280;23671;38.090;-122.570;2023-05-11T06:13:14;101782.56;;;15.75;48.11
37832;BME280;23671;38.090;-122.570;2023-05-11T06:15:41;101776.66;;;15.71;47.93
37832;BME280;23671;38.090;-122.570;2023-05-11T06:18:09;101785.47;;;15.72;48.20
37832;BME280;23671;38.090;-122.570;2023-05-11T06:20:36;101781.28;;;15.69;48.04
37832;BME280;23671;38.090;-122.570;2023-05-11T06:23:03;101777.91;;;15.67;47.94
37832;BME280;23671;38.090;-122.570;2023-05-11T06:25:32;101779.25;;;15.62;48.15
37832;BME280;23671;38.090;-122.570;2023-05-11T06:28:00;101785.66;;;15.59;48.11
37832;BME280;23671;38.090;-122.570;2023-05-11T06:30:27;101778.78;;;15.57;48.15
37832;BME280;23671;38.090;-122.570;2023-05-11T06:32:55;101779.75;;;15.56;48.12
37832;BME280;23671;38.090;-122.570;2023-05-11T06:35:22;101785.09;;;15.56;48.00
37832;BME280;23671;38.090;-122.570;2023-05-11T06:37:49;101786.44;;;15.50;48.17
37832;BME280;23671;38.090;-122.570;2023-05-11T06:40:17;101786.44;;;15.50;48.18
37832;BME280;23671;38.090;-122.570;2023-05-11T06:42:44;101770.25;;;15.42;48.17
37832;BME280;23671;38.090;-122.570;2023-05-11T06:45:11;101778.34;;;15.40;48.16
37832;BME280;23671;38.090;-122.570;2023-05-11T06:47:38;101776.75;;;15.38;48.14
37832;BME280;23671;38.090;-122.570;2023-05-11T06:50:05;101777.00;;;15.35;48.23
37832;BME280;23671;38.090;-122.570;2023-05-11T06:52:32;101781.88;;;15.30;48.29
37832;BME280;23671;38.090;-122.570;2023-05-11T06:54:59;101779.19;;;15.30;48.29
37832;BME280;23671;38.090;-122.570;2023-05-11T06:57:27;101783.22;;;15.24;48.36
37832;BME280;23671;38.090;-122.570;2023-05-11T06:59:54;101781.50;;;15.23;48.27
37832;BME280;23671;38.090;-122.570;2023-05-11T07:02:21;101778.13;;;15.21;48.43
37832;BME280;23671;38.090;-122.570;2023-05-11T07:04:48;101776.72;;;15.17;48.38
37832;BME280;23671;38.090;-122.570;2023-05-11T07:07:15;101774.28;;;15.14;48.36
37832;BME280;23671;38.090;-122.570;2023-05-11T07:09:42;101772.72;;;15.12;48.31
37832;BME280;23671;38.090;-122.570;2023-05-11T07:12:09;101768.50;;;15.09;48.57
37832;BME280;23671;38.090;-122.570;2023-05-11T07:14:36;101770.66;;;15.04;48.53
37832;BME280;23671;38.090;-122.570;2023-05-11T07:17:03;101774.31;;;15.03;48.52
37832;BME280;23671;38.090;-122.570;2023-05-11T07:19:30;101765.75;;;15.00;48.56
37832;BME280;23671;38.090;-122.570;2023-05-11T07:21:57;101770.56;;;14.95;48.53
37832;BME280;23671;38.090;-122.570;2023-05-11T07:24:24;101770.56;;;14.95;48.58
37832;BME280;23671;38.090;-122.570;2023-05-11T07:26:51;101777.97;;;14.91;48.55
37832;BME280;23671;38.090;-122.570;2023-05-11T07:29:18;101780.75;;;14.90;48.36
37832;BME280;23671;38.090;-122.570;2023-05-11T07:31:45;101769.38;;;14.88;48.61
37832;BME280;23671;38.090;-122.570;2023-05-11T07:34:13;101772.53;;;14.82;48.64
37832;BME280;23671;38.090;-122.570;2023-05-11T07:36:41;101778.94;;;14.79;48.84
37832;BME280;23671;38.090;-122.570;2023-05-11T07:39:08;101772.88;;;14.77;48.70
37832;BME280;23671;38.090;-122.570;2023-05-11T07:41:36;101774.81;;;14.75;48.77
37832;BME280;23671;38.090;-122.570;2023-05-11T07:44:03;101771.47;;;14.73;48.66
37832;BME280;23671;38.090;-122.570;2023-05-11T07:46:31;101764.72;;;14.69;48.72
37832;BME280;23671;38.090;-122.570;2023-05-11T07:48:58;101769.41;;;14.66;48.75
37832;BME280;23671;38.090;-122.570;2023-05-11T07:51:25;101769.41;;;14.66;48.76
37832;BME280;23671;38.090;-122.570;2023-05-11T07:53:52;101769.66;;;14.63;48.70
37832;BME280;23671;38.090;-122.570;2023-05-11T07:56:19;101777.75;;;14.61;48.74
37832;BME280;23671;38.090;-122.570;2023-05-11T07:58:46;101772.66;;;14.58;48.70
37832;BME280;23671;38.090;-122.570;2023-05-11T08:01:13;101774.59;;;14.56;48.84
37832;BME280;23671;38.090;-122.570;2023-05-11T08:03:40;101773.88;;;14.54;48.88
37832;BME280;23671;38.090;-122.570;2023-05-11T08:06:08;101770.47;;;14.52;48.79
37832;BME280;23671;38.090;-122.570;2023-05-11T08:08:35;101771.47;;;14.51;49.13
37832;BME280;23671;38.090;-122.570;2023-05-11T08:11:01;101762.91;;;14.47;48.75
37832;BME280;23671;38.090;-122.570;2023-05-11T08:13:29;101758.66;;;14.45;48.96
37832;BME280;23671;38.090;-122.570;2023-05-11T08:15:56;101767.59;;;14.44;48.99
37832;BME280;23671;38.090;-122.570;2023-05-11T08:18:23;101764.09;;;14.43;49.01
37832;BME280;23671;38.090;-122.570;2023-05-11T08:20:50;101760.00;;;14.39;49.32
37832;BME280;23671;38.090;-122.570;2023-05-11T08:23:17;101760.97;;;14.38;49.17
37832;BME280;23671;38.090;-122.570;2023-05-11T08:25:52;101758.78;;;14.32;49.20
37832;BME280;23671;38.090;-122.570;2023-05-11T08:28:20;101764.19;;;14.31;49.22
37832;BME280;23671;38.090;-122.570;2023-05-11T08:30:57;101764.44;;;14.28;48.86
37832;BME280;23671;38.090;-122.570;2023-05-11T08:33:25;101762.00;;;14.25;49.26
37832;BME280;23671;38.090;-122.570;2023-05-11T08:35:53;101764.88;;;14.22;49.23
37832;BME280;23671;38.090;-122.570;2023-05-11T08:38:20;101750.03;;;14.19;49.00
37832;BME280;23671;38.090;-122.570;2023-05-11T08:40:47;101754.38;;;14.20;49.26
37832;BME280;23671;38.090;-122.570;2023-05-11T08:43:14;101738.94;;;14.14;49.50
37832;BME280;23671;38.090;-122.570;2023-05-11T08:45:44;101755.00;;;14.13;49.25
37832;BME280;23671;38.090;-122.570;2023-05-11T08:48:14;101752.47;;;14.11;49.08
37832;BME280;23671;38.090;-122.570;2023-05-11T08:50:47;101749.16;;;14.08;49.31
37832;BME280;23671;38.090;-122.570;2023-05-11T08:53:14;101747.97;;;14.01;49.40
37832;BME280;23671;38.090;-122.570;2023-05-11T08:55:42;101745.31;;;14.01;48.96
37832;BME280;23671;38.090;-122.570;2023-05-11T08:58:09;101751.59;;;14.00;49.36
37832;BME280;23671;38.090;-122.570;2023-05-11T09:00:40;101745.66;;;13.96;49.36
37832;BME280;23671;38.090;-122.570;2023-05-11T09:03:09;101748.31;;;13.96;49.42
37832;BME280;23671;38.090;-122.570;2023-05-11T09:05:36;101745.78;;;13.95;49.66
37832;BME280;23671;38.090;-122.570;2023-05-11T09:08:04;101743.38;;;13.92;49.74
37832;BME280;23671;38.090;-122.570;2023-05-11T09:10:34;101742.75;;;13.88;49.45
37832;BME280;23671;38.090;-122.570;2023-05-11T09:13:02;101741.19;;;13.86;49.43
37832;BME280;23671;38.090;-122.570;2023-05-11T09:15:29;101745.75;;;13.84;49.20
37832;BME280;23671;38.090;-122.570;2023-05-11T09:17:56;101733.66;;;13.80;49.96
37832;BME280;23671;38.090;-122.570;2023-05-11T09:20:30;101737.41;;;13.77;49.31
37832;BME280;23671;38.090;-122.570;2023-05-11T09:22:58;101732.22;;;13.76;49.34
37832;BME280;23671;38.090;-122.570;2023-05-11T09:25:29;101737.66;;;13.74;49.53
37832;BME280;23671;38.090;-122.570;2023-05-11T09:27:59;101741.38;;;13.72;49.91
37832;BME280;23671;38.090;-122.570;2023-05-11T09:30:27;101735.34;;;13.69;49.66
37832;BME280;23671;38.090;-122.570;2023-05-11T09:33:00;101735.56;;;13.66;49.34
37832;BME280;23671;38.090;-122.570;2023-05-11T09:35:29;101734.13;;;13.62;49.54
37832;BME280;23671;38.090;-122.570;2023-05-11T09:38:08;101732.41;;;13.61;49.87
37832;BME280;23671;38.090;-122.570;2023-05-11T09:40:36;101738.69;;;13.60;49.61
37832;BME280;23671;38.090;-122.570;2023-05-11T09:43:24;101737.97;;;13.58;49.61
37832;BME280;23671;38.090;-122.570;2023-05-11T09:45:54;101739.03;;;13.56;50.17
37832;BME280;23671;38.090;-122.570;2023-05-11T09:48:26;101740.13;;;13.53;50.19
37832;BME280;23671;38.090;-122.570;2023-05-11T09:51:07;101740.13;;;13.53;49.64
37832;BME280;23671;38.090;-122.570;2023-05-11T09:53:38;101744.78;;;13.50;49.82
37832;BME280;23671;38.090;-122.570;2023-05-11T09:56:08;101752.13;;;13.46;50.06
37832;BME280;23671;38.090;-122.570;2023-05-11T09:58:52;101746.22;;;13.43;50.19
37832;BME280;23671;38.090;-122.570;2023-05-11T10:01:31;101743.81;;;13.40;49.99
37832;BME280;23671;38.090;-122.570;2023-05-11T10:04:01;101745.72;;;13.38;50.04
37832;BME280;23671;38.090;-122.570;2023-05-11T10:06:50;101741.72;;;13.32;50.21
37832;BME280;23671;38.090;-122.570;2023-05-11T10:09:18;101732.19;;;13.30;50.25
37832;BME280;23671;38.090;-122.570;2023-05-11T10:11:50;101733.38;;;13.26;49.90
37832;BME280;23671;38.090;-122.570;2023-05-11T10:14:19;101733.50;;;13.24;50.30
37832;BME280;23671;38.090;-122.570;2023-05-11T10:16:47;101735.41;;;13.22;49.96
37832;BME280;23671;38.090;-122.570;2023-05-11T10:19:14;101732.88;;;13.21;50.40
37832;BME280;23671;38.090;-122.570;2023-05-11T10:21:42;101734.06;;;13.17;50.54
37832;BME280;23671;38.090;-122.570;2023-05-11T10:24:10;101734.13;;;13.15;50.07
37832;BME280;23671;38.090;-122.570;2023-05-11T10:26:38;101730.03;;;13.11;50.28
37832;BME280;23671;38.090;-122.570;2023-05-11T10:29:05;101732.91;;;13.08;50.35
37832;BME280;23671;38.090;-122.570;2023-05-11T10:31:33;101733.75;;;13.09;50.44
37832;BME280;23671;38.090;-122.570;2023-05-11T10:34:01;101730.50;;;13.05;50.07
37832;BME280;23671;38.090;-122.570;2023-05-11T10:36:30;101726.44;;;13.00;50.49
37832;BME280;23671;38.090;-122.570;2023-05-11T10:38:57;101728.38;;;12.98;50.42
37832;BME280;23671;38.090;-122.570;2023-05-11T10:44:41;101725.19;;;12.93;50.71
37832;BME280;23671;38.090;-122.570;2023-05-11T10:50:09;101713.84;;;12.91;50.63
37832;BME280;23671;38.090;-122.570;2023-05-11T11:03:36;101720.03;;;12.78;50.84
37832;BME280;23671;38.090;-122.570;2023-05-11T11:06:04;101715.22;;;12.72;50.36
37832;BME280;23671;38.090;-122.570;2023-05-11T11:08:54;101722.19;;;12.73;50.63
37832;BME280;23671;38.090;-122.570;2023-05-11T11:11:37;101719.97;;;12.67;50.65
37832;BME280;23671;38.090;-122.570;2023-05-11T11:14:05;101710.34;;;12.66;50.62
37832;BME280;23671;38.090;-122.570;2023-05-11T11:16:36;101713.09;;;12.65;51.28
37832;BME280;23671;38.090;-122.570;2023-05-11T11:22:00;101710.34;;;12.66;50.12
37832;BME280;23671;38.090;-122.570;2023-05-11T11:27:07;101709.72;;;12.63;50.78
37832;BME280;23671;38.090;-122.570;2023-05-11T11:29:36;101705.38;;;12.62;50.37
37832;BME280;23671;38.090;-122.570;2023-05-11T11:34:49;101716.28;;;12.57;50.30
37832;BME280;23671;38.090;-122.570;2023-05-11T11:37:17;101716.41;;;12.56;50.58
37832;BME280;23671;38.090;-122.570;2023-05-11T11:39:45;101713.88;;;12.54;50.33
37832;BME280;23671;38.090;-122.570;2023-05-11T11:42:14;101712.06;;;12.55;50.39
37832;BME280;23671;38.090;-122.570;2023-05-11T11:44:43;101707.84;;;12.52;50.52
37832;BME280;23671;38.090;-122.570;2023-05-11T11:49:45;101694.69;;;12.51;50.84
37832;BME280;23671;38.090;-122.570;2023-05-11T11:54:56;101700.00;;;12.51;50.25
37832;BME280;23671;38.090;-122.570;2023-05-11T12:00:07;101695.75;;;12.48;50.36
37832;BME280;23671;38.090;-122.570;2023-05-11T12:02:44;101696.00;;;12.45;50.72
37832;BME280;23671;38.090;-122.570;2023-05-11T12:05:18;101691.75;;;12.43;50.45
37832;BME280;23671;38.090;-122.570;2023-05-11T12:07:49;101702.34;;;12.43;50.88
37832;BME280;23671;38.090;-122.570;2023-05-11T12:10:19;101704.38;;;12.39;51.10
37832;BME280;23671;38.090;-122.570;2023-05-11T12:12:51;101712.44;;;12.38;50.83
37832;BME280;23671;38.090;-122.570;2023-05-11T12:15:29;101722.16;;;12.37;51.07
37832;BME280;23671;38.090;-122.570;2023-05-11T12:18:01;101715.09;;;12.38;50.54
37832;BME280;23671;38.090;-122.570;2023-05-11T12:20:28;101717.00;;;12.36;50.60
37832;BME280;23671;38.090;-122.570;2023-05-11T12:22:55;101717.00;;;12.36;50.94
37832;BME280;23671;38.090;-122.570;2023-05-11T12:25:22;101723.34;;;12.33;50.94
37832;BME280;23671;38.090;-122.570;2023-05-11T12:27:54;101720.69;;;12.33;51.00
37832;BME280;23671;38.090;-122.570;2023-05-11T12:30:28;101720.06;;;12.30;50.86
37832;BME280;23671;38.090;-122.570;2023-05-11T12:32:56;101724.63;;;12.28;50.68
37832;BME280;23671;38.090;-122.570;2023-05-11T12:35:28;101722.91;;;12.27;50.60
37832;BME280;23671;38.090;-122.570;2023-05-11T12:37:58;101730.84;;;12.27;50.55
37832;BME280;23671;38.090;-122.570;2023-05-11T12:40:26;101729.28;;;12.24;50.90
37832;BME280;23671;38.090;-122.570;2023-05-11T12:42:55;101737.31;;;12.23;50.81
37832;BME280;23671;38.090;-122.570;2023-05-11T12:45:24;101730.34;;;12.22;50.97
37832;BME280;23671;38.090;-122.570;2023-05-11T12:47:53;101734.91;;;12.20;51.17
37832;BME280;23671;38.090;-122.570;2023-05-11T12:50:21;101729.72;;;12.18;50.78
37832;BME280;23671;38.090;-122.570;2023-05-11T12:52:48;101728.13;;;12.16;50.93
37832;BME280;23671;38.090;-122.570;2023-05-11T12:55:26;101735.19;;;12.15;51.27
37832;BME280;23671;38.090;-122.570;2023-05-11T12:58:07;101723.03;;;12.13;50.86
37832;BME280;23671;38.090;-122.570;2023-05-11T13:00:34;101719.53;;;12.12;50.89
37832;BME280;23671;38.090;-122.570;2023-05-11T13:03:02;101728.66;;;12.08;50.95
37832;BME280;23671;38.090;-122.570;2023-05-11T13:05:30;101726.22;;;12.05;50.94
37832;BME280;23671;38.090;-122.570;2023-05-11T13:08:01;101719.22;;;12.04;51.09
37832;BME280;23671;38.090;-122.570;2023-05-11T13:10:29;101723.88;;;12.01;51.33
37832;BME280;23671;38.090;-122.570;2023-05-11T13:12:56;101718.47;;;12.02;51.19
37832;BME280;23671;38.090;-122.570;2023-05-11T13:15:24;101713.41;;;11.99;50.70